Ship Status Report: callsign BR3037

sailwx.info

Track history (hours):
 
Tides and Currents Weather Stations Pressure Air Temp Water Temp Dewpoint Dewpoint Depression Visibility Wind Speed Wind Dir Waves Ship Positions

Oceanographic research ship ()

Last reported at 2017-Nov-11 12:54 UTC. Time now 2017-Nov-20 02:13 UTC.
Position N 22°37' E 120°17'.
Warning: this ship's position is 8 days out of date.

Length 39 m.

Type: Other ship. MMSI: 416926000.

Date/timePositionNaut miles runAvg speedWind from/ knotsBaromVisibWave heightAir tempDewpointWater temp
2017-Nov-11 12:54N 22°37' E 120°17'4 9.0
2017-Nov-11 12:30N 22°37' E 120°13'1 1.6
2017-Nov-11 12:00N 22°36' E 120°12'2 0.2
2017-Nov-11 02:30N 22°38' E 120°14'  
2017-Nov-08 07:37N 22°37' E 120°17'1 9.8
2017-Nov-08 07:30N 22°37' E 120°16'3 6.0
2017-Nov-08 07:00N 22°37' E 120°12'3 4.7
2017-Nov-08 06:22N 22°35' E 120°11'0 1.1
2017-Nov-08 05:59N 22°35' E 120°10'0 0.2
2017-Nov-08 05:29N 22°35' E 120°10'2 3.5
2017-Nov-08 04:56N 22°36' E 120°12'0 0.2
2017-Nov-08 04:14N 22°36' E 120°12'0 0.6
2017-Nov-08 03:58N 22°37' E 120°12'1 2.9
2017-Nov-08 03:30N 22°38' E 120°12'1 2.4
2017-Nov-08 02:54N 22°38' E 120°14'1 1.4
2017-Nov-08 02:24N 22°38' E 120°14'0 0.1
2017-Nov-08 02:00N 22°38' E 120°14'2 0.1
2017-Nov-07 10:10N 22°37' E 120°17'1 8.0
2017-Nov-07 10:00N 22°37' E 120°15'3 0.1
2017-Nov-06 02:30N 22°38' E 120°11'4 0.1
2017-Nov-04 11:44N 22°37' E 120°16'310.0
2017-Nov-04 11:27N 22°37' E 120°13'6 0.6
2017-Nov-04 01:54N 22°32' E 120°12'410.2
2017-Nov-04 01:30N 22°36' E 120°11'4 7.6
2017-Nov-04 01:00N 22°38' E 120°14'5 0.2
2017-Nov-03 03:12N 22°37' E 120°09'1 2.6
2017-Nov-03 02:57N 22°37' E 120°09'4 9.0
2017-Nov-03 02:30N 22°38' E 120°14'  
Track history (hours):
 
Tides and Currents Weather Stations Pressure Air Temp Water Temp Dewpoint Dewpoint Depression Visibility Wind Speed Wind Dir Waves Ship Positions

Oceanographic research ship ()

Last reported at 2017-Nov-11 12:54 UTC. Time now 2017-Nov-20 02:13 UTC.
Position N 22°37' E 120°17'.
Warning: this ship's position is 8 days out of date.

Length 39 m.

Type: Other ship. MMSI: 416926000.

Date/timePositionNaut miles runAvg speedWind from/ knotsBaromVisibWave heightAir tempDewpointWater temp
2017-Nov-11 12:54N 22°37' E 120°17'4 9.0
2017-Nov-11 12:30N 22°37' E 120°13'1 1.6
2017-Nov-11 12:00N 22°36' E 120°12'2 0.2
2017-Nov-11 02:30N 22°38' E 120°14'  
2017-Nov-08 07:37N 22°37' E 120°17'1 9.8
2017-Nov-08 07:30N 22°37' E 120°16'3 6.0
2017-Nov-08 07:00N 22°37' E 120°12'3 4.7
2017-Nov-08 06:22N 22°35' E 120°11'0 1.1
2017-Nov-08 05:59N 22°35' E 120°10'0 0.2
2017-Nov-08 05:29N 22°35' E 120°10'2 3.5
2017-Nov-08 04:56N 22°36' E 120°12'0 0.2
2017-Nov-08 04:14N 22°36' E 120°12'0 0.6
2017-Nov-08 03:58N 22°37' E 120°12'1 2.9
2017-Nov-08 03:30N 22°38' E 120°12'1 2.4
2017-Nov-08 02:54N 22°38' E 120°14'1 1.4
2017-Nov-08 02:24N 22°38' E 120°14'0 0.1
2017-Nov-08 02:00N 22°38' E 120°14'2 0.1
2017-Nov-07 10:10N 22°37' E 120°17'1 8.0
2017-Nov-07 10:00N 22°37' E 120°15'3 0.1
2017-Nov-06 02:30N 22°38' E 120°11'4 0.1
2017-Nov-04 11:44N 22°37' E 120°16'310.0
2017-Nov-04 11:27N 22°37' E 120°13'6 0.6
2017-Nov-04 01:54N 22°32' E 120°12'410.2
2017-Nov-04 01:30N 22°36' E 120°11'4 7.6
2017-Nov-04 01:00N 22°38' E 120°14'5 0.2
2017-Nov-03 03:12N 22°37' E 120°09'1 2.6
2017-Nov-03 02:57N 22°37' E 120°09'4 9.0
2017-Nov-03 02:30N 22°38' E 120°14'  

Dump ship's entire track history